Terminal Aerodrome Forecast
Issued by NWS Duluth, MN

Home | Current Version | Previous Version | Text Only | Print | Product List | Glossary On
Versions: 1 2 3 4 5 6 7 8 9 10 11 12 13 14 15 16 17 18 19 20 21 22 23 24 25 26
000
FTUS43 KDLH 281738
TAFINL
TAF
KINL 281738Z 2818/2918 VRB05KT P6SM VCSH FEW030 BKN035 BKN060
     FM281900 28007KT P6SM VCSH BKN070
     FM290600 29006KT P6SM VCSH OVC020
     FM290900 29007KT P6SM -SHRA OVC008
     FM291500 32011G19KT P6SM -SHRA OVC008=

USA.gov is the U.S. government's official web portal to all federal, state and local government web resources and services.